Time;durP1;ratioP1;P1;durP2;ratioP2;P2;SDS_P1;SDS_P2;PMS_P1;PMS_P2;Temp;Humidity;BMP_temperature;BMP_pressure;BME280_temperature;BME280_humidity;BME280_pressure;Samples;Min_cycle;Max_cycle;Signal;HPM_P1;HPM_P2
2022/07/27 04:52:20;;;;;;;;;5.50;2.25;;;;;19.24;54.94;101700.25;2773879;23;45914;-85
2022/07/27 04:53:30;;;;;;;;;4.00;3.00;;;;;19.24;54.77;101697.56;2370239;28;45463;-87
2022/07/27 04:54:41;;;;;;;;;4.25;3.25;;;;;19.23;54.88;101704.75;2375373;28;45419;-85
2022/07/27 04:55:52;;;;;;;;;3.50;3.00;;;;;19.26;54.85;101694.84;2375837;28;45639;-85
2022/07/27 04:57:02;;;;;;;;;2.00;2.00;;;;;19.27;54.93;101699.22;2371400;28;47010;-85
2022/07/27 04:58:13;;;;;;;;;3.00;2.25;;;;;19.30;54.83;101699.94;2367146;28;44915;-85
2022/07/27 04:59:24;;;;;;;;;6.00;4.00;;;;;19.30;55.04;101694.59;2373124;28;45625;-85
2022/07/27 05:00:34;;;;;;;;;5.00;3.00;;;;;19.32;54.67;101705.16;2373772;28;45401;-84
2022/07/27 05:01:45;;;;;;;;;6.75;2.25;;;;;19.29;54.78;101703.53;2371747;28;45770;-84
2022/07/27 05:02:55;;;;;;;;;3.00;3.00;;;;;19.27;54.51;101700.09;2365385;28;45481;-86
2022/07/27 05:04:06;;;;;;;;;5.50;3.25;;;;;19.28;53.97;101701.81;2374285;28;47396;-87
2022/07/27 05:05:16;;;;;;;;;3.00;3.00;;;;;19.26;54.47;101705.50;2363706;28;45485;-88
2022/07/27 05:06:26;;;;;;;;;4.00;3.00;;;;;19.22;54.59;101704.81;2366768;28;45439;-87
2022/07/27 05:07:37;;;;;;;;;3.50;3.50;;;;;19.18;54.29;101709.44;2369553;28;45472;-87
2022/07/27 05:08:47;;;;;;;;;3.00;3.00;;;;;19.18;54.36;101705.91;2368736;28;45408;-86
2022/07/27 05:09:57;;;;;;;;;3.25;2.25;;;;;19.15;54.30;101706.03;2370471;28;45410;-87
2022/07/27 05:11:08;;;;;;;;;6.50;2.00;;;;;19.12;54.65;101697.28;2371040;28;46207;-87
2022/07/27 05:12:18;;;;;;;;;4.75;2.25;;;;;19.12;54.56;101705.28;2373339;28;45490;-87
2022/07/27 05:13:28;;;;;;;;;2.00;2.00;;;;;19.14;55.50;101705.19;2371166;28;46191;-87
2022/07/27 05:14:39;;;;;;;;;3.25;1.50;;;;;19.17;55.00;101709.47;2373150;28;45283;-86
2022/07/27 05:15:49;;;;;;;;;3.00;3.00;;;;;19.18;54.65;101706.78;2369602;28;45329;-86
2022/07/27 05:16:59;;;;;;;;;4.00;3.00;;;;;19.20;54.59;101710.22;2372843;28;45238;-87
2022/07/27 05:18:10;;;;;;;;;4.50;2.00;;;;;19.21;54.34;101711.09;2364512;28;47924;-86
2022/07/27 05:19:21;;;;;;;;;3.75;3.00;;;;;19.19;54.52;101708.50;2367228;28;45450;-86
2022/07/27 05:20:31;;;;;;;;;4.25;4.00;;;;;19.19;54.15;101711.16;2373519;28;45350;-88
2022/07/27 05:21:42;;;;;;;;;3.25;3.25;;;;;19.17;53.86;101712.16;2373662;28;45280;-86
2022/07/27 05:22:52;;;;;;;;;7.00;2.00;;;;;19.14;54.01;101713.19;2361832;29;48412;-85
2022/07/27 05:24:03;;;;;;;;;2.00;2.00;;;;;19.12;54.13;101717.72;2357481;29;45417;-85
2022/07/27 05:25:13;;;;;;;;;4.50;2.75;;;;;19.09;53.93;101716.09;2357765;29;48309;-86
2022/07/27 05:26:24;;;;;;;;;3.50;3.00;;;;;19.05;53.93;101721.66;2367372;28;45376;-85
2022/07/27 05:27:36;;;;;;;;;4.00;3.00;;;;;19.03;53.81;101718.22;2371642;28;46704;-86
2022/07/27 05:28:46;;;;;;;;;5.00;2.25;;;;;18.99;54.25;101713.06;2374611;28;45169;-86
2022/07/27 05:29:57;;;;;;;;;4.75;3.00;;;;;18.97;54.05;101719.41;2370805;28;46735;-86
2022/07/27 05:31:07;;;;;;;;;1.75;1.25;;;;;18.98;54.35;101713.16;2368825;28;45361;-86
2022/07/27 05:32:17;;;;;;;;;2.00;2.00;;;;;18.99;54.35;101722.84;2373681;28;46968;-86
2022/07/27 05:33:28;;;;;;;;;2.00;2.00;;;;;19.02;54.53;101722.69;2365449;28;45186;-86
2022/07/27 05:34:40;;;;;;;;;3.00;3.00;;;;;19.02;53.81;101728.03;2361250;29;47349;-85
2022/07/27 05:35:51;;;;;;;;;3.50;2.75;;;;;19.04;54.39;101731.47;2367545;28;45922;-87
2022/07/27 05:37:01;;;;;;;;;4.50;2.25;;;;;19.06;54.07;101729.56;2371787;28;46283;-87
2022/07/27 05:38:12;;;;;;;;;4.00;3.00;;;;;19.08;54.16;101724.19;2364709;29;45315;-86
2022/07/27 05:39:22;;;;;;;;;7.00;2.50;;;;;19.09;53.96;101726.75;2366399;28;45486;-86
2022/07/27 05:40:32;;;;;;;;;5.00;3.00;;;;;19.09;53.74;101724.09;2363078;29;45507;-86
2022/07/27 05:41:43;;;;;;;;;3.25;3.25;;;;;19.09;54.12;101729.41;2358144;29;47152;-87
2022/07/27 05:42:53;;;;;;;;;3.50;2.00;;;;;19.06;53.84;101723.41;2370720;28;45295;-85
2022/07/27 05:44:04;;;;;;;;;3.50;3.00;;;;;19.05;54.29;101725.19;2364579;29;46357;-85
2022/07/27 05:45:14;;;;;;;;;4.00;4.00;;;;;19.06;53.86;101720.75;2367691;28;45425;-85
2022/07/27 05:46:24;;;;;;;;;2.25;2.00;;;;;19.04;54.32;101726.13;2368119;28;46529;-85
2022/07/27 05:47:35;;;;;;;;;5.25;2.50;;;;;19.08;54.33;101732.16;2374871;28;45363;-82
2022/07/27 05:48:45;;;;;;;;;4.00;2.00;;;;;19.08;54.12;101727.72;2365630;28;48444;-87
2022/07/27 05:49:56;;;;;;;;;3.00;3.00;;;;;19.10;54.27;101720.50;2365047;29;45365;-85
2022/07/27 05:51:07;;;;;;;;;2.25;2.25;;;;;19.14;54.23;101723.00;2365399;28;45435;-82
2022/07/27 05:52:19;;;;;;;;;3.25;2.25;;;;;19.20;54.60;101731.53;2373960;28;45336;-84
2022/07/27 05:53:29;;;;;;;;;4.00;4.00;;;;;19.23;54.09;101726.06;2372578;28;46978;-84
2022/07/27 05:54:40;;;;;;;;;2.50;1.75;;;;;19.26;54.16;101730.34;2373934;28;45601;-84
2022/07/27 05:55:51;;;;;;;;;3.00;3.00;;;;;19.31;53.70;101730.94;2368805;28;46061;-85
2022/07/27 05:57:01;;;;;;;;;4.00;3.00;;;;;19.35;53.73;101728.97;2370793;28;45389;-85
2022/07/27 05:58:12;;;;;;;;;2.75;2.75;;;;;19.38;54.11;101722.63;2366070;28;47389;-85
2022/07/27 05:59:22;;;;;;;;;6.75;3.00;;;;;19.42;53.69;101729.50;2357992;29;45542;-85
2022/07/27 06:00:33;;;;;;;;;6.00;3.00;;;;;19.44;54.07;101735.59;2358087;28;46333;-85
2022/07/27 06:01:43;;;;;;;;;5.00;2.00;;;;;19.48;53.62;101726.50;2358293;28;45380;-85
2022/07/27 06:02:54;;;;;;;;;4.50;3.00;;;;;19.51;53.56;101723.66;2357916;28;45568;-85
2022/07/27 06:04:04;;;;;;;;;2.00;2.00;;;;;19.56;53.50;101736.72;2360308;29;44769;-84
2022/07/27 06:05:15;;;;;;;;;2.25;2.25;;;;;19.55;53.19;101732.34;2366793;28;46311;-85
2022/07/27 06:08:07;;;;;;;;;5.00;4.00;;;;;19.55;52.94;101735.88;2366754;28;45548;-86
2022/07/27 06:09:18;;;;;;;;;3.00;2.00;;;;;19.49;52.90;101730.88;2370620;28;44896;-85
2022/07/27 06:10:31;;;;;;;;;4.50;3.50;;;;;19.44;53.14;101733.81;2373575;28;45276;-84
2022/07/27 06:11:42;;;;;;;;;6.50;2.75;;;;;19.44;53.03;101738.28;2369120;28;44737;-85
2022/07/27 06:12:52;;;;;;;;;4.50;2.25;;;;;19.47;53.56;101738.09;2372793;28;48009;-85
2022/07/27 06:14:03;;;;;;;;;2.25;2.25;;;;;19.47;53.51;101743.44;2371451;28;44925;-85
2022/07/27 06:15:15;;;;;;;;;4.00;3.25;;;;;19.53;53.38;101740.41;2374561;28;45488;-85
2022/07/27 06:16:26;;;;;;;;;6.75;3.75;;;;;19.53;53.26;101743.09;2364704;28;44804;-84
2022/07/27 06:17:36;;;;;;;;;3.75;3.00;;;;;19.56;53.23;101742.94;2360588;28;45458;-85
2022/07/27 06:18:47;;;;;;;;;4.00;3.00;;;;;19.56;53.24;101742.94;2364896;28;45453;-85
2022/07/27 06:19:57;;;;;;;;;2.50;1.50;;;;;19.58;53.34;101740.19;2367051;28;45291;-85
2022/07/27 06:21:08;;;;;;;;;3.50;3.00;;;;;19.56;52.81;101739.41;2373675;28;45244;-85
2022/07/27 06:22:18;;;;;;;;;3.00;2.25;;;;;19.56;53.47;101744.72;2373113;28;45274;-85
2022/07/27 06:23:28;;;;;;;;;4.00;2.75;;;;;19.56;53.12;101739.41;2363614;29;44703;-85
2022/07/27 06:24:39;;;;;;;;;4.75;3.00;;;;;19.59;52.85;101743.69;2365449;28;45254;-83
2022/07/27 06:25:49;;;;;;;;;6.75;4.50;;;;;19.59;53.15;101751.69;2373302;28;45272;-85
2022/07/27 06:26:59;;;;;;;;;1.25;1.25;;;;;19.57;52.48;101741.13;2374600;28;46260;-84
2022/07/27 06:28:10;;;;;;;;;3.50;3.50;;;;;19.59;52.52;101747.22;2365857;29;44801;-88
2022/07/27 06:29:20;;;;;;;;;4.25;3.00;;;;;19.58;52.35;101747.31;2367931;28;47007;-84
2022/07/27 06:30:31;;;;;;;;;5.50;3.00;;;;;19.56;53.43;101753.59;2375505;28;45252;-84
2022/07/27 06:31:41;;;;;;;;;2.50;2.50;;;;;19.57;53.51;101749.13;2375074;28;48072;-84
2022/07/27 06:32:51;;;;;;;;;2.50;2.50;;;;;19.61;53.45;101749.78;2366114;29;45246;-84
2022/07/27 06:34:02;;;;;;;;;3.50;3.00;;;;;19.66;53.78;101753.06;2368769;28;45582;-84
2022/07/27 06:35:13;;;;;;;;;3.25;3.25;;;;;19.71;53.44;101751.00;2370407;28;44733;-84
2022/07/27 06:36:23;;;;;;;;;2.50;2.00;;;;;19.73;53.18;101748.28;2373654;28;46697;-84
2022/07/27 06:37:35;;;;;;;;;1.50;1.25;;;;;19.76;53.60;101740.09;2375408;28;45440;-84
2022/07/27 06:38:46;;;;;;;;;3.00;3.00;;;;;19.82;53.12;101749.56;2375539;28;45501;-84
2022/07/27 06:39:59;;;;;;;;;6.25;4.00;;;;;19.85;52.87;101741.38;2375691;28;44745;-84
2022/07/27 06:41:10;;;;;;;;;4.00;4.00;;;;;19.89;52.71;101745.59;2367057;28;45427;-84
2022/07/27 06:42:20;;;;;;;;;2.75;2.75;;;;;19.91;52.44;101743.69;2366696;29;45303;-84
2022/07/27 06:43:31;;;;;;;;;3.00;3.00;;;;;19.93;52.66;101744.47;2366663;28;46097;-84
2022/07/27 06:44:41;;;;;;;;;4.50;2.50;;;;;19.97;53.47;101740.69;2366269;28;44594;-84
2022/07/27 06:45:56;;;;;;;;;3.75;3.00;;;;;20.00;52.86;101743.16;2367131;28;46720;-84
2022/07/27 06:47:07;;;;;;;;;2.75;2.00;;;;;20.06;52.89;101744.63;2376159;28;45358;-84
2022/07/27 06:48:17;;;;;;;;;3.25;2.00;;;;;20.10;53.07;101748.81;2365712;29;46993;-84
2022/07/27 06:49:28;;;;;;;;;3.00;3.00;;;;;20.18;52.69;101745.75;2368627;28;45245;-84
2022/07/27 06:50:38;;;;;;;;;4.50;3.75;;;;;20.21;52.18;101744.72;2371669;28;45371;-84
2022/07/27 06:51:48;;;;;;;;;5.00;3.00;;;;;20.27;52.17;101746.19;2366726;29;45218;-84
2022/07/27 06:52:59;;;;;;;;;3.25;3.00;;;;;20.30;51.78;101752.19;2356274;29;47151;-84
2022/07/27 06:54:10;;;;;;;;;3.25;3.25;;;;;20.33;52.25;101754.69;2365850;28;45230;-84
2022/07/27 06:55:20;;;;;;;;;4.00;4.00;;;;;20.36;51.91;101745.63;2373617;28;46079;-84
2022/07/27 06:56:31;;;;;;;;;3.50;3.50;;;;;20.39;52.33;101745.47;2358211;29;44777;-84
2022/07/27 06:57:42;;;;;;;;;3.75;3.25;;;;;20.42;51.52;101744.41;2359532;29;46529;-84
2022/07/27 06:58:52;;;;;;;;;5.75;3.75;;;;;20.42;51.95;101749.75;2368689;28;45241;-84
2022/07/27 07:00:05;;;;;;;;;2.00;2.00;;;;;20.44;52.17;101748.72;2364810;29;48276;-84
2022/07/27 07:01:16;;;;;;;;;3.50;3.25;;;;;20.48;51.93;101745.84;2373473;28;45501;-84
2022/07/27 07:02:26;;;;;;;;;4.00;4.00;;;;;20.48;51.90;101748.50;2377326;28;46367;-84
2022/07/27 07:03:37;;;;;;;;;2.25;2.25;;;;;20.48;51.78;101745.84;2375664;28;45332;-84
2022/07/27 07:04:47;;;;;;;;;7.25;2.75;;;;;20.50;51.64;101746.59;2374875;28;48102;-84
2022/07/27 07:05:57;;;;;;;;;3.50;1.00;;;;;20.51;51.67;101754.53;2375474;28;45227;-84
2022/07/27 07:07:08;;;;;;;;;5.75;3.00;;;;;20.52;51.78;101755.41;2365484;29;47244;-84
2022/07/27 07:08:20;;;;;;;;;5.50;3.00;;;;;20.53;51.87;101752.63;2358841;29;44791;-84
2022/07/27 07:09:30;;;;;;;;;3.25;3.25;;;;;20.56;51.46;101749.78;2367581;28;48376;-84
2022/07/27 07:10:44;;;;;;;;;4.75;3.00;;;;;20.59;52.05;101754.09;2375090;28;45232;-84
2022/07/27 07:11:54;;;;;;;;;4.25;3.25;;;;;20.65;52.57;101755.50;2375216;28;45682;-84
2022/07/27 07:13:06;;;;;;;;;4.25;3.75;;;;;20.67;51.63;101757.16;2375463;28;45271;-84
2022/07/27 07:14:17;;;;;;;;;6.00;4.00;;;;;20.69;51.57;101760.56;2374833;28;47241;-83
2022/07/27 07:15:27;;;;;;;;;5.25;5.25;;;;;20.71;51.49;101755.16;2359745;29;45414;-85
2022/07/27 07:16:37;;;;;;;;;5.75;5.00;;;;;20.72;51.51;101751.53;2361981;28;45415;-84
2022/07/27 07:17:48;;;;;;;;;4.50;4.00;;;;;20.75;51.46;101762.03;2365549;29;45220;-85
2022/07/27 07:18:58;;;;;;;;;3.00;3.00;;;;;20.73;51.46;101758.59;2368418;28;45496;-85
2022/07/27 07:20:09;;;;;;;;;5.50;3.75;;;;;20.72;51.36;101756.88;2371923;28;45465;-84
2022/07/27 07:21:20;;;;;;;;;3.75;3.75;;;;;20.71;51.32;101763.19;2365756;28;46940;-84
2022/07/27 07:22:32;;;;;;;;;6.00;5.50;;;;;20.71;51.26;101756.97;2361648;28;45299;-84
2022/07/27 07:23:42;;;;;;;;;4.00;3.00;;;;;20.69;51.56;101752.56;2375496;28;45524;-84
2022/07/27 07:24:53;;;;;;;;;5.00;4.00;;;;;20.72;51.69;101756.03;2375601;28;45362;-85
2022/07/27 07:26:03;;;;;;;;;3.00;3.00;;;;;20.75;51.75;101755.81;2375511;28;46549;-84
2022/07/27 07:27:14;;;;;;;;;2.00;2.00;;;;;20.79;51.72;101755.53;2375788;28;45181;-84
2022/07/27 07:28:24;;;;;;;;;2.00;2.00;;;;;20.88;51.80;101762.16;2375408;28;46293;-85
2022/07/27 07:29:34;;;;;;;;;3.50;3.25;;;;;20.96;52.00;101763.50;2375376;28;45266;-84
2022/07/27 07:30:45;;;;;;;;;3.25;2.25;;;;;21.03;51.83;101754.19;2366952;28;45248;-85
2022/07/27 07:31:55;;;;;;;;;4.25;4.25;;;;;21.09;51.36;101755.59;2366375;29;45351;-85
2022/07/27 07:33:05;;;;;;;;;6.00;4.00;;;;;21.13;51.31;101750.00;2369452;28;46073;-85
2022/07/27 07:34:16;;;;;;;;;9.25;6.25;;;;;21.21;51.31;101756.66;2375429;28;44708;-85
2022/07/27 07:35:26;;;;;;;;;6.50;5.00;;;;;21.25;51.00;101756.38;2375440;28;45386;-85
2022/07/27 07:36:37;;;;;;;;;4.75;4.75;;;;;21.28;51.28;101759.81;2374881;28;45263;-85
2022/07/27 07:37:47;;;;;;;;;6.25;4.25;;;;;21.30;50.89;101755.22;2374218;28;45373;-85
2022/07/27 07:38:58;;;;;;;;;5.25;5.25;;;;;21.30;51.04;101764.09;2375061;28;44736;-84
2022/07/27 07:40:10;;;;;;;;;7.00;5.75;;;;;21.33;51.06;101758.56;2370929;28;45261;-84
2022/07/27 07:41:23;;;;;;;;;6.25;5.25;;;;;21.34;51.32;101762.94;2366495;28;45302;-84
2022/07/27 07:42:50;;;;;;;;;6.75;5.00;;;;;21.36;50.58;101760.16;2372989;28;46260;-85
2022/07/27 07:44:00;;;;;;;;;6.00;5.00;;;;;21.37;50.81;101751.19;2365291;29;44642;-84
2022/07/27 07:45:10;;;;;;;;;7.00;4.00;;;;;21.39;50.80;101756.44;2358879;29;48133;-85
2022/07/27 07:46:21;;;;;;;;;6.00;6.00;;;;;21.39;50.41;101757.31;2368126;28;45309;-84
2022/07/27 07:47:31;;;;;;;;;5.00;4.50;;;;;21.40;50.34;101752.81;2374876;28;45411;-85
2022/07/27 07:48:42;;;;;;;;;5.50;4.75;;;;;21.41;50.55;101750.03;2365417;29;45254;-85
2022/07/27 07:49:53;;;;;;;;;4.50;4.50;;;;;21.39;50.40;101759.09;2367459;28;45522;-84
2022/07/27 07:51:03;;;;;;;;;6.25;4.75;;;;;21.37;50.74;101753.88;2366456;29;45295;-84
2022/07/27 07:52:13;;;;;;;;;7.00;5.00;;;;;21.38;50.28;101758.28;2365871;29;45457;-84
2022/07/27 07:53:24;;;;;;;;;4.25;4.00;;;;;21.36;50.39;101757.50;2364687;29;45269;-85
2022/07/27 07:54:34;;;;;;;;;3.75;3.75;;;;;21.33;50.58;101755.91;2368024;28;45259;-84
2022/07/27 07:55:45;;;;;;;;;6.50;5.50;;;;;21.34;50.74;101752.25;2370549;28;44687;-85
2022/07/27 07:56:55;;;;;;;;;10.00;6.00;;;;;21.34;50.69;101757.59;2360401;29;47191;-85
2022/07/27 07:58:05;;;;;;;;;6.00;6.00;;;;;21.38;50.81;101757.41;2368198;28;45261;-85
2022/07/27 07:59:16;;;;;;;;;6.50;6.00;;;;;21.36;50.94;101755.69;2375375;28;45343;-85
2022/07/27 08:00:26;;;;;;;;;6.25;6.00;;;;;21.39;50.72;101753.75;2375479;28;45350;-84
2022/07/27 08:01:37;;;;;;;;;6.00;4.00;;;;;21.40;50.55;101752.81;2377963;28;47499;-85
2022/07/27 08:02:50;;;;;;;;;8.75;7.25;;;;;21.40;50.09;101751.00;2374656;28;45227;-84
2022/07/27 08:04:00;;;;;;;;;8.00;7.00;;;;;21.38;50.31;101747.59;2374012;28;47984;-84
2022/07/27 08:05:11;;;;;;;;;7.00;6.00;;;;;21.38;50.18;101752.06;2374903;28;45331;-85
2022/07/27 08:06:22;;;;;;;;;4.25;3.50;;;;;21.38;50.73;101752.06;2375347;28;45383;-85
2022/07/27 08:07:32;;;;;;;;;3.25;3.00;;;;;21.40;50.69;101744.81;2365063;29;44600;-85
2022/07/27 08:08:42;;;;;;;;;5.00;3.50;;;;;21.43;50.69;101744.63;2367013;28;47271;-85
2022/07/27 08:09:53;;;;;;;;;5.50;4.00;;;;;21.49;50.85;101741.53;2364787;28;45598;-85
2022/07/27 08:11:03;;;;;;;;;5.75;5.00;;;;;21.56;50.30;101747.34;2360734;28;47045;-84
2022/07/27 08:12:14;;;;;;;;;4.00;4.00;;;;;21.63;50.52;101737.97;2366423;28;44819;-85
2022/07/27 08:13:24;;;;;;;;;5.50;5.50;;;;;21.68;50.70;101732.34;2373011;28;45325;-85
2022/07/27 08:14:35;;;;;;;;;8.50;7.50;;;;;21.76;50.58;101735.34;2365005;29;45249;-84
2022/07/27 08:15:45;;;;;;;;;4.75;4.75;;;;;21.80;50.46;101736.03;2356997;29;47533;-84
2022/07/27 08:16:56;;;;;;;;;5.25;4.00;;;;;21.87;50.22;101741.84;2364917;28;45387;-84
2022/07/27 08:18:06;;;;;;;;;7.50;6.25;;;;;21.91;49.89;101741.56;2364619;29;47126;-84
2022/07/27 08:19:17;;;;;;;;;10.00;7.00;;;;;21.96;49.88;101740.38;2366119;28;45426;-85
2022/07/27 08:20:27;;;;;;;;;4.25;4.25;;;;;21.97;49.58;101742.97;2356216;29;46965;-84
2022/07/27 08:21:38;;;;;;;;;4.00;4.00;;;;;22.03;50.10;101747.03;2362697;28;45237;-84
2022/07/27 08:22:48;;;;;;;;;6.75;6.25;;;;;22.05;49.71;101745.13;2373572;28;45367;-84
2022/07/27 08:23:58;;;;;;;;;6.25;4.50;;;;;22.09;49.87;101748.47;2369348;28;45265;-84
2022/07/27 08:25:10;;;;;;;;;8.50;5.25;;;;;22.12;49.44;101745.59;2364928;28;45551;-84
2022/07/27 08:26:20;;;;;;;;;7.00;6.00;;;;;22.14;49.69;101743.66;2375002;28;45336;-85
2022/07/27 08:27:30;;;;;;;;;8.75;7.00;;;;;22.17;48.87;101747.97;2358739;29;46985;-85
2022/07/27 08:28:41;;;;;;;;;10.25;6.75;;;;;22.19;49.41;101746.91;2358583;29;45488;-85
2022/07/27 08:29:51;;;;;;;;;6.75;6.50;;;;;22.22;49.24;101746.69;2367830;28;45650;-85
2022/07/27 08:31:02;;;;;;;;;8.00;8.00;;;;;22.22;49.34;101749.38;2374937;28;45333;-84
2022/07/27 08:32:12;;;;;;;;;8.75;7.50;;;;;22.24;49.42;101739.41;2364037;29;48059;-85
2022/07/27 08:33:23;;;;;;;;;9.25;8.00;;;;;22.23;49.05;101743.03;2364306;29;44785;-84
2022/07/27 08:34:33;;;;;;;;;4.75;4.75;;;;;22.25;49.21;101743.78;2370498;28;46017;-84
2022/07/27 08:35:44;;;;;;;;;6.00;5.00;;;;;22.25;48.95;101743.78;2373914;28;44796;-84
2022/07/27 08:36:55;;;;;;;;;6.50;5.00;;;;;22.29;48.85;101738.25;2371617;28;46014;-84
2022/07/27 08:38:08;;;;;;;;;9.00;8.00;;;;;22.31;48.32;101739.00;2367179;28;45430;-85
2022/07/27 08:39:18;;;;;;;;;9.00;9.00;;;;;22.32;48.27;101746.06;2363321;28;46948;-84
2022/07/27 08:40:29;;;;;;;;;4.75;4.75;;;;;22.31;48.55;101731.81;2352220;29;45354;-84
2022/07/27 08:41:41;;;;;;;;;8.75;8.00;;;;;22.33;48.64;101743.28;2367168;28;45405;-84
2022/07/27 08:42:52;;;;;;;;;10.25;6.00;;;;;22.34;48.57;101747.69;2374482;28;45269;-84
2022/07/27 08:44:02;;;;;;;;;5.00;4.50;;;;;22.35;48.82;101740.50;2366668;28;46457;-85
2022/07/27 08:45:15;;;;;;;;;9.25;7.75;;;;;22.39;49.13;101738.47;2370427;28;45305;-84
2022/07/27 08:46:27;;;;;;;;;7.25;6.75;;;;;22.43;48.30;101742.66;2362416;29;47913;-85
2022/07/27 08:47:39;;;;;;;;;8.50;7.25;;;;;22.45;48.12;101746.94;2367473;28;45466;-85
2022/07/27 08:48:50;;;;;;;;;7.75;7.00;;;;;22.46;48.28;101737.09;2374734;28;46373;-85
2022/07/27 08:50:01;;;;;;;;;7.25;7.00;;;;;22.46;48.36;101734.41;2373083;28;45473;-84
2022/07/27 08:51:12;;;;;;;;;7.50;6.00;;;;;22.46;48.41;101743.31;2364520;29;46893;-84
2022/07/27 08:52:23;;;;;;;;;9.00;7.25;;;;;22.45;47.99;101740.72;2366932;28;45304;-84
2022/07/27 08:53:33;;;;;;;;;8.50;6.50;;;;;22.45;48.46;101736.22;2374186;28;46216;-84
2022/07/27 08:54:45;;;;;;;;;5.50;5.25;;;;;22.45;48.13;101743.41;2372327;28;45500;-85
2022/07/27 08:55:56;;;;;;;;;7.25;7.25;;;;;22.43;48.08;101737.28;2364875;29;47435;-84
2022/07/27 08:57:08;;;;;;;;;8.25;6.50;;;;;22.43;47.71;101746.19;2364908;29;45433;-84
2022/07/27 08:58:19;;;;;;;;;9.75;8.25;;;;;22.39;47.85;101741.16;2367999;28;45497;-84
2022/07/27 08:59:29;;;;;;;;;6.50;5.75;;;;;22.40;47.72;101742.88;2365019;29;45308;-85
2022/07/27 09:00:45;;;;;;;;;9.50;7.50;;;;;22.41;48.34;101744.59;2358180;28;47105;-85
2022/07/27 09:01:55;;;;;;;;;8.50;8.50;;;;;22.43;47.97;101732.81;2372175;28;44680;-85
2022/07/27 09:03:06;;;;;;;;;3.75;3.25;;;;;22.46;48.18;101735.28;2374204;28;45524;-85
2022/07/27 09:04:16;;;;;;;;;6.75;5.75;;;;;22.51;48.14;101739.47;2374191;28;45395;-85
2022/07/27 09:05:27;;;;;;;;;11.50;8.00;;;;;22.56;48.11;101743.53;2364748;29;46193;-84
2022/07/27 09:06:40;;;;;;;;;5.00;4.00;;;;;22.59;47.59;101742.47;2366512;28;45309;-85
2022/07/27 09:07:51;;;;;;;;;7.25;5.25;;;;;22.65;48.38;101742.03;2373974;28;45442;-85
2022/07/27 09:09:03;;;;;;;;;8.00;7.00;;;;;22.69;47.96;101742.72;2364021;29;45271;-85
2022/07/27 09:10:34;;;;;;;;;14.25;10.75;;;;;22.74;47.59;101734.38;2365862;28;45571;-85
2022/07/27 09:12:02;;;;;;;;;7.00;5.75;;;;;22.75;47.71;101736.06;2365379;28;45262;-84
2022/07/27 09:13:30;;;;;;;;;6.25;6.25;;;;;22.75;47.22;101739.63;2372699;28;45429;-85
2022/07/27 09:14:41;;;;;;;;;9.25;7.00;;;;;22.78;48.22;101738.53;2358940;29;45377;-85
2022/07/27 09:15:53;;;;;;;;;8.00;7.25;;;;;22.80;47.98;101739.28;2349062;29;48346;-85
2022/07/27 09:17:21;;;;;;;;;7.25;7.25;;;;;22.84;47.63;101735.41;2359075;29;44757;-85
2022/07/27 09:18:32;;;;;;;;;6.75;6.50;;;;;22.87;47.86;101734.34;2365681;29;45465;-85
2022/07/27 09:20:00;;;;;;;;;5.00;4.00;;;;;22.92;47.24;101732.22;2365681;29;44718;-85
2022/07/27 09:21:19;;;;;;;;;3.25;3.25;;;;;22.98;47.09;101733.59;2368269;28;48192;-86
2022/07/27 09:22:45;;;;;;;;;7.00;7.00;;;;;23.04;47.06;101733.16;2373029;28;45492;-85
2022/07/27 09:24:06;;;;;;;;;5.25;4.00;;;;;23.09;47.18;101733.69;2371646;28;45474;-85
2022/07/27 09:25:29;;;;;;;;;6.25;6.00;;;;;23.16;47.25;101740.34;2371784;28;45357;-85
2022/07/27 09:26:40;;;;;;;;;7.25;6.25;;;;;23.21;46.81;101744.53;2370181;28;47336;-85
2022/07/27 09:27:56;;;;;;;;;7.50;6.25;;;;;23.27;46.63;101736.03;2373251;28;44666;-85
2022/07/27 09:29:12;;;;;;;;;4.00;4.00;;;;;23.31;46.38;101732.16;2372051;28;46368;-85
2022/07/27 09:30:24;;;;;;;;;5.00;4.00;;;;;23.35;46.50;101735.47;2370898;28;45312;-85
2022/07/27 09:31:45;;;;;;;;;5.00;5.00;;;;;23.36;45.50;101735.38;2364973;28;46914;-85
2022/07/27 09:32:58;;;;;;;;;4.00;4.00;;;;;23.38;45.86;101733.41;2371038;28;45292;-85
2022/07/27 09:34:09;;;;;;;;;5.75;4.75;;;;;23.40;46.31;101740.50;2374424;28;45184;-85
2022/07/27 09:35:35;;;;;;;;;5.25;4.00;;;;;23.43;46.34;101738.47;2374479;28;45239;-86
2022/07/27 09:36:54;;;;;;;;;4.25;4.25;;;;;23.46;45.99;101735.56;2373789;28;45541;-86
2022/07/27 09:38:21;;;;;;;;;6.50;5.75;;;;;23.49;46.14;101727.31;2374688;28;45377;-87
2022/07/27 09:39:32;;;;;;;;;8.00;6.25;;;;;23.54;45.81;101736.84;2364491;29;46864;-89
2022/07/27 09:40:42;;;;;;;;;7.75;6.50;;;;;23.55;45.37;101725.16;2358224;29;45351;-85
2022/07/27 09:41:55;;;;;;;;;8.25;6.25;;;;;23.57;45.36;101731.25;2360386;29;47506;-88
2022/07/27 09:43:11;;;;;;;;;5.00;5.00;;;;;23.57;45.65;101732.13;2368218;28;45330;-88
2022/07/27 09:44:36;;;;;;;;;7.25;6.25;;;;;23.60;45.58;101728.38;2356158;29;46899;-87
2022/07/27 09:45:47;;;;;;;;;6.00;5.00;;;;;23.60;45.64;101726.53;2360051;29;45360;-89
2022/07/27 09:46:57;;;;;;;;;5.00;4.00;;;;;23.63;45.92;101725.44;2360685;29;48024;-87
2022/07/27 09:48:17;;;;;;;;;5.25;5.25;;;;;23.68;46.33;101728.63;2356493;29;45252;-88
2022/07/27 09:49:31;;;;;;;;;5.00;4.75;;;;;23.71;46.19;101727.56;2364308;28;45430;-90
2022/07/27 09:50:44;;;;;;;;;4.50;4.50;;;;;23.75;45.27;101728.19;2373377;28;45168;-89
2022/07/27 09:51:56;;;;;;;;;5.25;5.25;;;;;23.77;44.68;101727.13;2364849;28;47292;-87
2022/07/27 09:53:15;;;;;;;;;5.00;5.00;;;;;23.75;44.46;101721.00;2367766;28;45509;-87
2022/07/27 09:54:27;;;;;;;;;5.00;4.75;;;;;23.74;45.15;101724.66;2364421;29;48148;-88
2022/07/27 09:55:38;;;;;;;;;4.00;4.00;;;;;23.73;44.68;101725.63;2367237;28;45403;-88
2022/07/27 09:57:00;;;;;;;;;5.00;5.00;;;;;23.75;44.63;101722.84;2374199;28;45565;-89
2022/07/27 09:58:11;;;;;;;;;4.25;4.25;;;;;23.77;44.64;101727.13;2374780;28;45237;-86
2022/07/27 09:59:21;;;;;;;;;3.25;3.25;;;;;23.79;44.28;101727.00;2372228;28;48079;-85
2022/07/27 10:00:31;;;;;;;;;3.00;3.00;;;;;23.79;43.44;101725.19;2365171;28;45264;-83
2022/07/27 10:01:42;;;;;;;;;4.00;4.00;;;;;23.79;43.72;101718.94;2371636;28;46395;-84
2022/07/27 10:02:53;;;;;;;;;8.00;5.00;;;;;23.80;43.78;101731.41;2376347;28;44656;-84
2022/07/27 10:04:06;;;;;;;;;7.00;4.00;;;;;23.79;43.54;101724.31;2376133;28;45486;-84
2022/07/27 10:05:20;;;;;;;;;4.25;4.25;;;;;23.80;43.87;101726.03;2376284;28;45453;-84
2022/07/27 10:06:30;;;;;;;;;3.00;3.00;;;;;23.81;43.97;101723.22;2375867;28;45287;-84
2022/07/27 10:07:41;;;;;;;;;3.00;3.00;;;;;23.83;44.25;101721.28;2365991;29;45268;-84
2022/07/27 10:08:53;;;;;;;;;3.00;3.00;;;;;23.86;43.63;101716.66;2368983;28;46508;-83
2022/07/27 10:10:05;;;;;;;;;6.50;4.00;;;;;23.87;43.59;101713.00;2376432;28;45375;-85
2022/07/27 10:11:16;;;;;;;;;7.00;5.00;;;;;23.91;43.82;101719.84;2374770;28;47279;-84
2022/07/27 10:12:30;;;;;;;;;5.00;5.00;;;;;23.92;43.49;101721.56;2375322;28;44744;-84
2022/07/27 10:13:41;;;;;;;;;4.75;4.25;;;;;23.96;43.33;101712.31;2371447;28;45312;-84
2022/07/27 10:14:51;;;;;;;;;5.75;5.00;;;;;24.01;43.65;101712.81;2366282;28;45257;-85
2022/07/27 10:16:04;;;;;;;;;5.00;4.00;;;;;24.07;42.92;101706.13;2367530;28;46537;-84
2022/07/27 10:17:14;;;;;;;;;6.50;4.25;;;;;24.12;43.14;101711.16;2367160;28;44698;-84
2022/07/27 10:18:44;;;;;;;;;3.75;3.75;;;;;24.15;43.07;101717.13;2356893;29;46859;-84
2022/07/27 10:19:56;;;;;;;;;5.00;4.00;;;;;24.16;42.89;101709.94;2365909;28;45448;-84
2022/07/27 10:21:09;;;;;;;;;6.75;4.00;;;;;24.17;42.73;101712.50;2375626;28;45382;-84
2022/07/27 10:22:47;;;;;;;;;4.75;4.00;;;;;24.20;43.15;101710.56;2375655;28;45176;-84
2022/07/27 10:24:07;;;;;;;;;3.00;3.00;;;;;24.21;42.33;101710.44;2376072;28;45367;-84
2022/07/27 10:25:19;;;;;;;;;3.50;3.50;;;;;24.23;42.48;101711.19;2375448;28;45258;-87
2022/07/27 10:26:38;;;;;;;;;3.25;2.00;;;;;24.27;42.45;101709.16;2372272;28;46279;-85
2022/07/27 10:28:09;;;;;;;;;3.50;3.25;;;;;24.28;42.08;101711.72;2373924;28;45191;-85